Time;durP1;ratioP1;P1;durP2;ratioP2;P2;SDS_P1;SDS_P2;PMS_P1;PMS_P2;Temp;Humidity;BMP_temperature;BMP_pressure;BME280_temperature;BME280_humidity;BME280_pressure;Samples;Min_cycle;Max_cycle;Signal;HPM_P1;HPM_P2
2023/01/03 00:00:06;;;;;;;4.22;2.10;;;;;;;16.15;65.38;102593.63;6160455;23;20005;-84
2023/01/03 00:02:32;;;;;;;3.78;1.90;;;;;;;16.14;65.38;102589.28;6135581;23;20008;-85
2023/01/03 00:04:58;;;;;;;3.10;1.85;;;;;;;16.14;65.30;102589.28;6185281;23;20036;-83
2023/01/03 00:07:32;;;;;;;3.63;2.10;;;;;;;16.15;65.30;102587.56;6135519;23;20008;-81
2023/01/03 00:10:03;;;;;;;3.28;2.00;;;;;;;16.14;65.16;102589.28;6114886;23;20013;-84
2023/01/03 00:12:30;;;;;;;3.50;1.90;;;;;;;16.12;65.38;102596.16;6160142;23;20016;-86
2023/01/03 00:14:57;;;;;;;3.83;1.90;;;;;;;16.13;65.26;102592.72;6135803;23;20013;-85
2023/01/03 00:17:23;;;;;;;3.20;1.65;;;;;;;16.13;65.06;102592.72;6160182;23;20008;-76
2023/01/03 00:19:49;;;;;;;3.05;1.85;;;;;;;16.13;64.97;102591.84;6184744;23;20009;-75
2023/01/03 00:22:15;;;;;;;2.78;1.90;;;;;;;16.11;65.15;102597.00;6134968;23;20009;-76
2023/01/03 00:24:42;;;;;;;4.45;1.70;;;;;;;16.12;64.92;102600.50;6185909;23;20000;-76
2023/01/03 00:27:11;;;;;;;3.53;1.90;;;;;;;16.11;64.89;102604.78;6135125;23;20016;-76
2023/01/03 00:29:36;;;;;;;2.50;1.75;;;;;;;16.11;65.22;102603.91;6134919;23;20013;-75
2023/01/03 00:32:02;;;;;;;4.20;1.88;;;;;;;16.11;64.82;102602.19;6135154;23;20100;-75
2023/01/03 00:34:28;;;;;;;6.35;1.80;;;;;;;16.11;64.79;102601.31;6186407;23;19997;-76
2023/01/03 00:36:54;;;;;;;2.50;1.85;;;;;;;16.10;64.85;102600.44;6184174;23;20084;-76
2023/01/03 00:39:20;;;;;;;3.22;1.80;;;;;;;16.10;64.57;102594.38;6186325;23;20012;-75
2023/01/03 00:41:46;;;;;;;3.10;1.65;;;;;;;16.10;64.99;102602.19;6134779;23;20017;-75
2023/01/03 00:44:12;;;;;;;2.83;1.52;;;;;;;16.09;64.87;102592.59;6134644;23;20021;-77
2023/01/03 00:46:37;;;;;;;2.80;1.80;;;;;;;16.08;64.83;102590.88;6134756;23;20016;-75
2023/01/03 00:49:03;;;;;;;2.85;1.80;;;;;;;16.08;64.88;102596.94;6159704;23;20337;-75
2023/01/03 00:51:31;;;;;;;2.33;1.55;;;;;;;16.07;64.72;102594.28;6134928;23;20008;-75
2023/01/03 00:53:58;;;;;;;3.25;1.85;;;;;;;16.07;64.71;102596.88;6185809;23;20005;-75
2023/01/03 00:56:30;;;;;;;3.08;1.60;;;;;;;16.07;64.76;102599.47;6159349;23;20008;-75
2023/01/03 00:58:56;;;;;;;2.67;1.63;;;;;;;16.06;65.02;102596.00;6184066;23;20008;-75
2023/01/03 01:01:25;;;;;;;4.00;1.75;;;;;;;16.07;64.50;102596.88;6185866;23;20076;-77
2023/01/03 01:03:53;;;;;;;2.78;1.58;;;;;;;16.06;64.62;102590.81;6185634;23;20028;-76
2023/01/03 01:06:21;;;;;;;2.80;1.58;;;;;;;16.06;64.93;102598.59;6183972;23;20008;-77
2023/01/03 01:08:48;;;;;;;3.75;1.67;;;;;;;16.06;64.79;102596.00;6159319;23;20009;-74
2023/01/03 01:11:14;;;;;;;2.45;1.60;;;;;;;16.06;64.89;102597.75;6185586;23;20028;-75
2023/01/03 01:13:41;;;;;;;2.17;1.52;;;;;;;16.06;64.77;102598.59;6159064;23;20152;-75
2023/01/03 01:16:13;;;;;;;2.47;1.60;;;;;;;16.07;64.45;102602.06;6135521;23;20005;-75
2023/01/03 01:18:39;;;;;;;2.33;1.38;;;;;;;16.05;64.81;102596.88;6187343;23;20005;-75
2023/01/03 01:21:10;;;;;;;3.53;1.52;;;;;;;16.05;64.41;102607.25;6161131;23;20087;-75
2023/01/03 01:23:37;;;;;;;2.30;1.40;;;;;;;16.05;64.57;102609.84;6161035;23;20067;-75
2023/01/03 01:26:04;;;;;;;2.85;1.70;;;;;;;16.04;64.51;102610.69;6136582;23;20013;-75
2023/01/03 01:28:30;;;;;;;2.58;1.70;;;;;;;16.04;64.76;102611.53;6185711;23;20001;-76
2023/01/03 01:31:01;;;;;;;2.00;1.40;;;;;;;16.03;64.57;102615.00;6136681;23;20009;-75
2023/01/03 01:33:27;;;;;;;2.75;1.60;;;;;;;16.04;64.53;102615.88;6161120;23;20005;-75
2023/01/03 01:35:53;;;;;;;2.80;1.63;;;;;;;16.03;64.42;102624.50;6136291;23;20345;-75
2023/01/03 01:38:21;;;;;;;3.33;1.48;;;;;;;16.02;64.34;102622.75;6185679;23;20052;-76
2023/01/03 01:40:46;;;;;;;2.13;1.45;;;;;;;16.01;64.31;102621.88;6136338;23;20035;-75
2023/01/03 01:46:19;;;;;;;2.22;1.30;;;;;;;16.02;64.33;102622.75;6187387;23;20027;-75
2023/01/03 01:48:46;;;;;;;4.32;1.60;;;;;;;16.01;65.00;102619.28;6160802;23;20016;-76
2023/01/03 01:51:12;;;;;;;2.55;1.52;;;;;;;16.00;64.31;102621.81;6160884;23;20009;-76
2023/01/03 01:53:40;;;;;;;2.17;1.40;;;;;;;16.01;64.41;102619.28;6136010;23;20009;-75
2023/01/03 01:56:08;;;;;;;2.53;1.58;;;;;;;16.01;64.03;102632.25;6160774;23;20332;-75
2023/01/03 01:58:36;;;;;;;2.05;1.50;;;;;;;16.00;64.09;102635.72;6185624;23;20005;-76
2023/01/03 02:01:09;;;;;;;2.88;1.52;;;;;;;15.99;64.55;102636.53;6160710;23;20441;-75
2023/01/03 02:03:35;;;;;;;2.95;1.42;;;;;;;16.00;64.42;102646.09;6160704;23;20005;-76
2023/01/03 02:06:04;;;;;;;3.28;1.60;;;;;;;16.00;64.38;102648.69;6160756;23;20426;-76
2023/01/03 02:08:30;;;;;;;2.65;1.63;;;;;;;15.99;64.46;102649.50;6160675;23;20043;-75
2023/01/03 02:11:32;;;;;;;2.53;1.27;;;;;;;15.98;64.28;102644.28;6136198;23;20009;-75
2023/01/03 02:14:25;;;;;;;2.83;1.42;;;;;;;15.97;63.95;102645.13;6185327;23;20005;-75
2023/01/03 02:17:17;;;;;;;1.67;1.30;;;;;;;15.98;64.08;102645.19;6185386;23;20028;-75
2023/01/03 02:20:01;;;;;;;2.47;1.55;;;;;;;15.98;63.95;102649.47;6160671;23;20001;-76
2023/01/03 02:22:36;;;;;;;2.67;1.40;;;;;;;15.98;64.33;102654.66;6185324;23;20059;-76
2023/01/03 02:25:26;;;;;;;2.42;1.42;;;;;;;15.98;64.17;102646.88;6185302;23;20064;-75
2023/01/03 02:28:10;;;;;;;2.00;1.40;;;;;;;15.97;64.24;102646.00;6184925;23;20084;-74
2023/01/03 02:30:43;;;;;;;2.33;1.55;;;;;;;15.97;64.14;102638.22;6185202;23;20009;-76
2023/01/03 02:33:35;;;;;;;2.72;1.45;;;;;;;15.97;64.09;102639.94;6186076;23;20382;-75
2023/01/03 02:36:38;;;;;;;1.77;1.30;;;;;;;15.96;64.15;102643.34;6160053;23;20005;-76
2023/01/03 02:39:28;;;;;;;3.05;1.50;;;;;;;15.95;64.16;102636.41;6160626;23;20013;-76
2023/01/03 02:42:56;;;;;;;1.90;1.52;;;;;;;15.95;64.22;102639.88;6185141;23;20319;-75
2023/01/03 02:45:03;;;;;;;2.25;1.40;;;;;;;15.95;64.31;102636.41;6160387;23;20443;-75
2023/01/03 02:47:37;;;;;;;2.45;1.52;;;;;;;15.95;63.94;102626.03;6130709;23;20033;-77
2023/01/03 02:50:06;;;;;;;2.45;1.40;;;;;;;15.94;63.93;102629.44;6130689;23;20076;-75
2023/01/03 02:52:33;;;;;;;2.33;1.20;;;;;;;15.94;64.60;102639.84;6156719;23;20352;-74
2023/01/03 02:55:11;;;;;;;3.15;1.50;;;;;;;15.95;63.93;102631.22;6131084;23;20406;-75
2023/01/03 02:57:44;;;;;;;1.90;1.23;;;;;;;15.93;63.97;102627.72;6156628;23;20008;-75
2023/01/03 03:00:14;;;;;;;2.58;1.38;;;;;;;15.92;64.24;102619.03;6130419;23;20002;-74
2023/01/03 03:02:44;;;;;;;2.65;1.50;;;;;;;15.93;63.70;102628.56;6130625;23;20330;-74
2023/01/03 03:05:14;;;;;;;2.25;1.38;;;;;;;15.91;64.02;102619.88;6130331;23;20032;-76
2023/01/03 03:07:40;;;;;;;2.25;1.50;;;;;;;15.91;64.11;102617.28;6130359;23;20018;-76
2023/01/03 03:13:12;;;;;;;2.58;1.50;;;;;;;15.92;63.83;102621.66;6156877;23;20012;-75
2023/01/03 03:15:45;;;;;;;2.33;1.40;;;;;;;15.92;64.37;102624.25;6156621;23;20101;-76
2023/01/03 03:18:33;;;;;;;1.90;1.20;;;;;;;15.90;63.64;102619.84;6130501;23;19994;-77
2023/01/03 03:26:40;;;;;;;1.80;1.30;;;;;;;15.89;63.63;102613.75;6156522;23;20064;-76
2023/01/03 03:29:10;;;;;;;;;;;;;;;15.90;63.91;102617.25;6131425;23;20026;-74
2023/01/03 03:31:42;;;;;;;2.55;1.50;;;;;;;15.90;63.45;102612.94;6156563;23;20287;-74
2023/01/03 03:34:13;;;;;;;1.98;1.17;;;;;;;15.89;63.96;102610.28;6130782;23;20079;-76
2023/01/03 03:36:46;;;;;;;2.08;1.42;;;;;;;15.88;63.99;102612.00;6156468;23;20479;-75
2023/01/03 03:45:39;;;;;;;2.55;1.67;;;;;;;15.87;63.99;102604.19;6156427;23;20044;-76
2023/01/03 03:51:26;;;;;;;1.55;1.17;;;;;;;15.86;63.51;102603.31;6156663;23;20016;-77
2023/01/03 03:53:52;;;;;;;2.95;1.50;;;;;;;15.86;64.03;102611.09;6130348;23;20005;-75
2023/01/03 03:56:23;;;;;;;3.13;1.55;;;;;;;15.84;64.10;102611.03;6105728;23;20024;-75
2023/01/03 03:58:55;;;;;;;2.45;1.40;;;;;;;15.85;63.67;102617.09;6156175;23;20002;-76
2023/01/03 04:01:22;;;;;;;1.60;1.13;;;;;;;15.84;63.87;102611.03;6130097;23;20057;-77
2023/01/03 04:03:50;;;;;;;2.85;1.58;;;;;;;15.84;63.71;102621.44;6130001;23;20379;-75
2023/01/03 04:06:48;;;;;;;2.22;1.30;;;;;;;15.83;64.08;102622.28;6105631;23;20013;-76
2023/01/03 04:09:14;;;;;;;2.17;1.40;;;;;;;15.82;63.81;102612.72;6157452;23;20006;-84
2023/01/03 04:11:40;;;;;;;2.13;1.50;;;;;;;15.83;64.10;102619.69;6134279;23;20032;-85
2023/01/03 04:14:05;;;;;;;2.65;1.60;;;;;;;15.82;63.99;102617.91;6130933;23;20029;-86
2023/01/03 04:16:31;;;;;;;2.70;1.50;;;;;;;15.81;64.06;102610.09;6155295;23;20024;-85
2023/01/03 04:18:56;;;;;;;1.73;1.30;;;;;;;15.82;63.42;102609.25;6106264;23;20056;-77
2023/01/03 04:21:21;;;;;;;1.88;1.45;;;;;;;15.82;64.33;102617.03;6156191;23;20084;-75
2023/01/03 04:23:47;;;;;;;2.15;1.50;;;;;;;15.81;63.98;102616.16;6081713;23;20036;-75
2023/01/03 04:26:13;;;;;;;2.38;1.65;;;;;;;15.82;63.62;102610.13;6156115;23;20001;-75
2023/01/03 04:28:38;;;;;;;2.55;1.42;;;;;;;15.80;64.12;102606.59;6154623;23;20033;-77
2023/01/03 04:31:04;;;;;;;2.08;1.67;;;;;;;15.80;64.37;102606.59;6105658;23;20006;-75
2023/01/03 04:33:29;;;;;;;1.58;1.33;;;;;;;15.80;64.00;102611.81;6130140;23;20370;-76
2023/01/03 04:35:54;;;;;;;2.45;1.50;;;;;;;15.80;63.62;102614.41;6082368;23;20056;-75
2023/01/03 04:38:20;;;;;;;2.05;1.50;;;;;;;15.80;63.90;102617.00;6154712;23;20013;-76
2023/01/03 04:40:45;;;;;;;2.53;1.50;;;;;;;15.80;63.97;102609.22;6105522;23;20075;-75
2023/01/03 04:45:54;;;;;;;;;;;;;;;15.79;63.34;102611.78;6134532;23;20079;-75
2023/01/03 04:48:20;;;;;;;4.10;1.60;;;;;;;15.80;63.38;102617.00;6155909;23;20337;-76
2023/01/03 04:50:57;;;;;;;1.92;1.40;;;;;;;15.79;63.49;102617.84;6130505;23;20386;-76
2023/01/03 04:53:24;;;;;;;2.17;1.40;;;;;;;15.79;63.84;102622.16;6131972;23;20005;-75
2023/01/03 04:55:51;;;;;;;2.25;1.55;;;;;;;15.77;64.01;102632.50;6132306;23;20016;-76
2023/01/03 04:58:17;;;;;;;3.17;1.52;;;;;;;15.77;63.35;102627.31;6107415;23;20036;-75
2023/01/03 05:00:43;;;;;;;2.05;1.42;;;;;;;15.78;63.27;102630.78;6131837;23;20497;-75
2023/01/03 05:03:11;;;;;;;2.42;1.42;;;;;;;15.78;63.88;102630.78;6107529;23;20009;-75
2023/01/03 05:05:38;;;;;;;2.50;1.40;;;;;;;15.77;63.79;102623.84;6157800;23;20100;-75
2023/01/03 05:08:06;;;;;;;2.28;1.58;;;;;;;15.77;64.01;102626.44;6131844;23;20064;-75
2023/01/03 05:10:32;;;;;;;2.10;1.35;;;;;;;15.77;63.77;102627.31;6131673;23;20081;-75
2023/01/03 05:13:01;;;;;;;2.33;1.50;;;;;;;15.78;64.06;102625.59;6107499;23;20032;-76
2023/01/03 05:15:27;;;;;;;2.22;1.52;;;;;;;15.79;63.77;102620.44;6107811;23;20088;-77
2023/01/03 05:17:53;;;;;;;1.88;1.33;;;;;;;15.78;63.59;102623.84;6156732;23;20052;-75
2023/01/03 05:26:01;;;;;;;2.40;1.60;;;;;;;15.79;63.88;102623.03;6158744;23;20126;-76
2023/01/03 05:28:27;;;;;;;2.58;1.50;;;;;;;15.79;63.90;102616.97;6133243;23;20009;-74
2023/01/03 05:30:52;;;;;;;2.55;1.70;;;;;;;15.79;63.44;102617.84;6108195;23;20489;-75
2023/01/03 05:33:18;;;;;;;2.30;1.50;;;;;;;15.78;63.69;102603.09;6132087;23;20032;-76
2023/01/03 05:35:47;;;;;;;3.40;2.10;;;;;;;15.79;63.89;102606.59;6131885;23;20013;-76
2023/01/03 05:38:13;;;;;;;3.00;1.70;;;;;;;15.80;63.81;102600.53;6107624;23;20056;-75
2023/01/03 05:40:38;;;;;;;1.85;1.60;;;;;;;15.79;63.80;102602.28;6107847;23;20088;-75
2023/01/03 05:43:04;;;;;;;2.20;1.73;;;;;;;15.79;64.00;102594.47;6112931;23;20447;-75
2023/01/03 05:45:29;;;;;;;2.22;1.67;;;;;;;15.80;64.00;102610.94;6137109;23;20016;-77
2023/01/03 05:47:57;;;;;;;3.70;1.95;;;;;;;15.80;63.87;102614.41;6112568;23;20496;-75
2023/01/03 05:50:23;;;;;;;2.13;1.70;;;;;;;15.79;64.02;102612.66;6186202;23;20456;-75
2023/01/03 05:52:49;;;;;;;2.75;1.90;;;;;;;15.80;63.80;102608.34;6137470;23;20004;-76
2023/01/03 05:55:15;;;;;;;2.78;1.90;;;;;;;15.78;63.87;102605.69;6161458;23;20478;-74
2023/01/03 05:57:41;;;;;;;2.30;1.98;;;;;;;15.79;63.69;102612.66;6136701;23;20005;-75
2023/01/03 06:00:10;;;;;;;2.58;2.10;;;;;;;15.79;63.74;102610.06;6162445;23;20004;-76
2023/01/03 06:02:35;;;;;;;2.53;2.20;;;;;;;15.79;63.92;102607.47;6161987;23;20013;-76
2023/01/03 06:05:00;;;;;;;2.53;1.88;;;;;;;15.80;63.96;102600.53;6112536;23;20059;-76
2023/01/03 06:07:28;;;;;;;2.40;1.90;;;;;;;15.79;63.63;102604.88;6138033;23;20017;-87
2023/01/03 06:09:54;;;;;;;2.28;1.92;;;;;;;15.79;63.58;102602.28;6168128;23;20001;-85
2023/01/03 06:12:19;;;;;;;2.00;1.80;;;;;;;15.81;63.22;102607.50;6116803;23;20333;-85
2023/01/03 06:14:44;;;;;;;2.50;2.00;;;;;;;15.80;63.67;102604.00;6141341;23;20005;-89
2023/01/03 06:19:54;;;;;;;3.58;1.85;;;;;;;15.81;63.49;102602.31;6169929;23;20084;-86
2023/01/03 06:22:19;;;;;;;2.50;2.10;;;;;;;15.81;63.59;102600.59;6165401;23;20009;-93
2023/01/03 06:24:44;;;;;;;2.70;2.20;;;;;;;15.81;63.78;102602.31;6145226;23;20009;-92
2023/01/03 06:27:10;;;;;;;2.20;1.98;;;;;;;15.81;63.25;102603.19;6127963;23;19989;-91
2023/01/03 06:29:35;;;;;;;2.60;2.00;;;;;;;15.81;63.74;102594.53;6151391;23;20059;-93
2023/01/03 06:32:00;;;;;;;2.88;1.83;;;;;;;15.81;63.57;102594.53;6154288;23;20012;-92
2023/01/03 06:57:55;;;;;;;5.25;2.78;;;;;;;15.95;63.68;102600.06;6148344;23;20041;-81
2023/01/03 08:41:59;;;;;;;3.80;2.08;;;;;;;16.55;60.29;102583.28;6191354;23;20273;-81
2023/01/03 08:44:25;;;;;;;2.88;1.75;;;;;;;16.55;60.19;102588.50;6169628;23;20024;-81
2023/01/03 08:46:53;;;;;;;3.30;1.80;;;;;;;16.55;60.20;102588.50;6184998;23;20065;-80
2023/01/03 08:49:20;;;;;;;3.00;1.60;;;;;;;16.55;60.37;102589.41;6176839;23;20327;-82
2023/01/03 08:51:45;;;;;;;2.88;1.77;;;;;;;16.56;60.18;102585.94;6175834;23;20001;-82
2023/01/03 08:54:14;;;;;;;4.60;1.80;;;;;;;16.58;60.11;102593.78;6183797;23;19996;-82
2023/01/03 08:56:39;;;;;;;2.85;1.80;;;;;;;16.59;59.89;102591.22;6182404;23;20004;-81
2023/01/03 08:59:08;;;;;;;3.58;1.75;;;;;;;16.62;59.88;102588.69;6180419;23;20021;-82
2023/01/03 09:01:34;;;;;;;2.63;1.65;;;;;;;16.65;59.83;102585.25;6205051;22;20017;-80
2023/01/03 10:20:02;;;;;;;2.70;1.80;;;;;;;16.86;59.03;102601.38;6180324;23;20137;-77
2023/01/03 10:22:29;;;;;;;2.85;2.00;;;;;;;16.88;58.68;102595.34;6211687;23;20021;-77
2023/01/03 10:25:03;;;;;;;3.22;1.73;;;;;;;16.89;58.85;102597.94;6161621;23;20009;-77
2023/01/03 10:27:33;;;;;;;3.97;1.85;;;;;;;16.88;58.92;102598.81;6161567;23;20031;-78
2023/01/03 10:30:00;;;;;;;3.45;2.00;;;;;;;16.88;58.96;102600.53;6161575;23;20016;-78
2023/01/03 10:33:11;;;;;;;2.75;1.90;;;;;;;16.89;58.69;102597.09;6136964;23;20009;-78
2023/01/03 10:35:36;;;;;;;3.47;1.90;;;;;;;16.89;58.83;102591.88;6136200;23;20011;-78
2023/01/03 10:38:02;;;;;;;3.17;1.98;;;;;;;16.91;58.58;102596.25;6137191;23;20080;-78
2023/01/03 10:40:38;;;;;;;2.78;1.95;;;;;;;16.91;58.70;102593.66;6161978;23;20000;-78
2023/01/03 10:43:36;;;;;;;3.78;1.90;;;;;;;16.93;58.53;102598.91;6161932;23;20380;-78
2023/01/03 10:46:15;;;;;;;2.83;2.03;;;;;;;16.93;58.52;102589.38;6161655;23;20463;-78
2023/01/03 10:48:43;;;;;;;3.42;2.00;;;;;;;16.93;58.92;102597.19;6138693;23;20016;-78
2023/01/03 10:51:35;;;;;;;2.42;1.70;;;;;;;16.97;58.61;102588.59;6188047;23;20005;-78
2023/01/03 10:54:17;;;;;;;3.22;1.73;;;;;;;16.94;58.73;102583.34;6162001;23;20008;-78
2023/01/03 10:56:44;;;;;;;2.55;2.00;;;;;;;16.82;58.75;102581.34;6140486;23;20019;-79
2023/01/03 10:59:11;;;;;;;3.83;2.53;;;;;;;16.73;59.16;102583.72;6165342;23;20004;-80
2023/01/03 11:01:37;;;;;;;5.10;2.78;;;;;;;16.68;59.64;102577.56;6192258;23;20303;-80
2023/01/03 11:04:18;;;;;;;6.25;3.70;;;;;;;16.72;58.81;102578.47;6121238;23;20005;-79
2023/01/03 11:07:11;;;;;;;11.55;4.53;;;;;;;16.71;58.50;102577.59;6185885;23;20429;-78
2023/01/03 11:09:54;;;;;;;6.88;4.13;;;;;;;16.72;58.51;102574.16;6174671;23;20005;-79
2023/01/03 11:12:38;;;;;;;11.15;3.70;;;;;;;16.73;58.73;102577.66;6187781;23;20341;-78
2023/01/03 11:15:15;;;;;;;10.80;3.90;;;;;;;16.75;59.05;102570.75;6186202;23;20075;-77
2023/01/03 11:17:58;;;;;;;12.23;4.70;;;;;;;16.75;58.95;102560.38;6186356;23;20035;-78
2023/01/03 12:16:41;;;;;;;7.05;3.45;;;;;;;16.65;59.95;102497.75;6181445;23;20130;31
2023/01/03 12:19:37;;;;;;;5.57;3.20;;;;;;;16.66;59.86;102494.34;6158964;23;20036;-83
2023/01/03 12:22:24;;;;;;;7.43;3.90;;;;;;;16.69;60.09;102495.25;6176259;23;20485;-82
2023/01/03 12:40:52;;;;;;;5.70;2.92;;;;;;;16.70;60.15;102489.19;6243470;22;20013;-83
2023/01/03 12:43:36;;;;;;;5.93;2.80;;;;;;;16.70;59.92;102486.59;6218441;23;20029;-84
2023/01/03 12:46:17;;;;;;;5.57;2.78;;;;;;;16.69;59.83;102484.84;6218583;23;20004;-83
2023/01/03 13:01:46;;;;;;;4.55;2.40;;;;;;;16.72;60.07;102464.09;6229282;22;20014;-83
2023/01/03 13:04:37;;;;;;;3.83;2.20;;;;;;;16.74;59.92;102458.06;6215826;23;19993;-82
2023/01/03 13:17:19;;;;;;;6.13;2.47;;;;;;;16.85;59.68;102450.53;6218223;23;20036;-78
2023/01/03 13:19:54;;;;;;;3.88;2.17;;;;;;;16.87;59.65;102451.44;6217459;23;20117;-78
2023/01/03 13:22:26;;;;;;;4.65;2.40;;;;;;;16.88;59.64;102450.59;6217186;23;20091;-78
2023/01/03 13:24:52;;;;;;;4.40;2.50;;;;;;;16.91;59.56;102436.78;6218337;23;20027;-78
2023/01/03 13:27:26;;;;;;;5.25;2.58;;;;;;;16.90;59.58;102430.69;6142287;23;20259;-78
2023/01/03 13:29:52;;;;;;;5.15;2.30;;;;;;;16.92;59.42;102433.31;6216817;23;20062;-78
2023/01/03 13:32:20;;;;;;;3.38;2.00;;;;;;;16.91;59.67;102435.03;6218656;23;20008;-78
2023/01/03 13:34:57;;;;;;;3.90;1.92;;;;;;;16.92;59.39;102436.81;6217239;23;20008;-78
2023/01/03 13:37:35;;;;;;;3.58;2.17;;;;;;;16.93;59.74;102433.34;6217230;23;20011;-78
2023/01/03 13:40:20;;;;;;;6.00;2.30;;;;;;;16.93;59.52;102417.75;6216579;23;20035;-78
2023/01/03 13:42:46;;;;;;;4.18;2.08;;;;;;;16.93;59.64;102415.16;6191286;23;20012;-79
2023/01/03 13:45:14;;;;;;;4.53;1.95;;;;;;;16.94;59.50;102413.41;6216994;23;20138;-78
2023/01/03 13:47:41;;;;;;;4.72;2.20;;;;;;;16.92;59.66;102416.00;6217063;23;20082;-78
2023/01/03 13:50:20;;;;;;;3.78;2.00;;;;;;;16.92;59.53;102409.91;6191247;23;20004;-78
2023/01/03 13:52:55;;;;;;;3.50;1.90;;;;;;;16.90;59.50;102404.69;6216674;23;20031;-79
2023/01/03 13:55:46;;;;;;;3.38;2.00;;;;;;;16.90;59.79;102398.59;6216513;23;20001;-78
2023/01/03 13:58:23;;;;;;;3.30;2.28;;;;;;;16.90;59.65;102409.00;6216432;23;20004;-78
2023/01/03 14:00:55;;;;;;;2.97;1.77;;;;;;;16.90;59.58;102402.09;6217269;23;20004;-79
2023/01/03 14:03:47;;;;;;;3.00;1.70;;;;;;;16.89;59.74;102404.66;6218228;23;20012;-79
2023/01/03 14:06:30;;;;;;;2.80;1.80;;;;;;;16.89;59.81;102396.88;6192173;23;20329;-78
2023/01/03 14:09:34;;;;;;;4.22;1.65;;;;;;;16.88;59.82;102392.53;6186373;23;20012;-79
2023/01/03 14:12:28;;;;;;;2.67;1.70;;;;;;;16.88;59.72;102400.31;6171948;23;20429;-78
2023/01/03 14:14:55;;;;;;;2.97;1.90;;;;;;;16.87;59.68;102394.22;6186012;23;20013;-78
2023/01/03 14:17:31;;;;;;;3.28;1.67;;;;;;;16.87;59.67;102391.63;6161439;23;20011;-78
2023/01/03 14:20:02;;;;;;;3.08;1.60;;;;;;;16.88;59.74;102389.94;6161419;23;20005;-78
2023/01/03 14:22:40;;;;;;;4.07;1.85;;;;;;;16.87;59.80;102386.44;6161139;23;20016;-78
2023/01/03 14:25:07;;;;;;;3.10;1.73;;;;;;;16.88;59.67;102382.13;6185869;23;20008;-78
2023/01/03 14:27:39;;;;;;;2.72;1.70;;;;;;;16.86;59.80;102375.16;6161594;23;20005;-78
2023/01/03 14:30:19;;;;;;;2.70;1.70;;;;;;;16.86;59.89;102375.16;6186428;23;20079;-78
2023/01/03 14:32:45;;;;;;;2.92;1.75;;;;;;;16.86;59.93;102374.28;6161463;23;20011;-78
2023/01/03 14:35:40;;;;;;;3.58;1.70;;;;;;;16.85;59.66;102376.03;6162498;23;20036;-78
2023/01/03 14:38:25;;;;;;;2.70;1.63;;;;;;;16.85;59.67;102381.22;6185897;23;20009;-78
2023/01/03 14:40:51;;;;;;;2.70;1.65;;;;;;;16.84;59.70;102370.78;6185962;23;20043;-78
2023/01/03 14:43:17;;;;;;;2.92;1.48;;;;;;;16.84;59.92;102368.19;6187529;23;20001;-78
2023/01/03 14:45:43;;;;;;;2.65;1.40;;;;;;;16.83;59.92;102369.91;6136573;23;20017;-78
2023/01/03 14:48:16;;;;;;;2.42;1.50;;;;;;;16.83;59.85;102369.91;6160844;23;20087;-78
2023/01/03 14:50:42;;;;;;;1.73;1.30;;;;;;;16.83;59.69;102369.91;6161109;23;20028;-78
2023/01/03 14:53:09;;;;;;;3.70;1.48;;;;;;;16.82;60.03;102367.28;6161216;23;20051;-80
2023/01/03 14:55:36;;;;;;;1.73;1.20;;;;;;;16.82;59.96;102368.16;6136614;23;20425;-78
2023/01/03 14:58:21;;;;;;;1.90;1.20;;;;;;;16.84;59.86;102368.19;6160843;23;20021;-78
2023/01/03 15:00:48;;;;;;;2.40;1.33;;;;;;;16.84;60.06;102362.97;6187373;23;20012;-80
2023/01/03 15:03:14;;;;;;;2.15;1.10;;;;;;;16.83;59.83;102361.22;6187663;23;20027;-79
2023/01/03 15:05:40;;;;;;;3.13;1.60;;;;;;;16.82;59.91;102360.34;6161193;23;20080;-78
2023/01/03 15:08:28;;;;;;;2.28;1.55;;;;;;;16.82;60.01;102362.94;6185833;23;20642;-78
2023/01/03 15:10:58;;;;;;;2.45;1.33;;;;;;;16.82;59.83;102365.53;6186037;23;20031;-79
2023/01/03 15:13:56;;;;;;;2.70;1.48;;;;;;;16.83;59.94;102367.31;6187215;23;20009;-78
2023/01/03 15:16:27;;;;;;;2.25;1.15;;;;;;;16.83;59.86;102371.63;6167742;23;20029;-79
2023/01/03 15:19:02;;;;;;;1.77;1.20;;;;;;;16.84;59.94;102365.59;6187566;23;20306;-79
2023/01/03 15:21:28;;;;;;;2.45;1.50;;;;;;;16.83;59.78;102366.41;6160145;23;20008;-78
2023/01/03 15:23:54;;;;;;;2.40;1.42;;;;;;;16.82;60.27;102357.75;6185059;23;20001;-79
2023/01/03 15:26:21;;;;;;;3.00;1.40;;;;;;;16.82;59.79;102357.75;6185772;23;20031;-78
2023/01/03 15:28:52;;;;;;;2.05;1.20;;;;;;;16.83;59.90;102361.22;6161101;23;20005;-79
2023/01/03 15:31:29;;;;;;;2.55;1.33;;;;;;;16.82;59.83;102355.16;6160955;23;20369;-79
2023/01/03 15:34:11;;;;;;;1.98;1.30;;;;;;;16.82;59.79;102362.94;6160029;23;20015;-78
2023/01/03 15:36:37;;;;;;;2.10;1.20;;;;;;;16.82;59.95;102352.53;6186536;23;20009;-78
2023/01/03 15:39:07;;;;;;;2.63;1.05;;;;;;;16.83;59.93;102356.00;6160596;23;20337;-79
2023/01/03 15:44:23;;;;;;;2.42;1.33;;;;;;;16.82;59.92;102344.75;6164141;23;20019;-78
2023/01/03 15:46:49;;;;;;;2.55;1.40;;;;;;;16.82;60.02;102347.34;6184775;23;20005;-79
2023/01/03 15:49:20;;;;;;;1.83;1.10;;;;;;;16.83;59.96;102350.81;6160713;23;20330;-79
2023/01/03 15:51:46;;;;;;;2.35;1.17;;;;;;;16.83;59.86;102343.00;6184936;23;20436;-78
2023/01/03 15:54:14;;;;;;;2.15;1.30;;;;;;;16.83;59.93;102337.81;6185812;23;20005;-79
2023/01/03 15:57:08;;;;;;;2.53;1.25;;;;;;;16.83;59.90;102340.41;6159951;23;20087;-79
2023/01/03 15:59:34;;;;;;;2.00;1.20;;;;;;;16.83;59.90;102333.50;6184294;23;20012;-79
2023/01/03 16:02:00;;;;;;;1.27;1.00;;;;;;;16.83;60.01;102337.81;6185252;23;20083;-79
2023/01/03 16:04:26;;;;;;;1.92;1.08;;;;;;;16.84;59.81;102336.97;6161938;23;20040;-78
2023/01/03 16:06:52;;;;;;;2.63;1.40;;;;;;;16.83;60.16;102327.41;6162475;23;20015;-78
2023/01/03 16:09:18;;;;;;;1.58;1.00;;;;;;;16.83;59.90;102333.50;6161174;23;20013;-78
2023/01/03 16:11:43;;;;;;;1.65;0.88;;;;;;;16.84;59.91;102329.19;6161044;23;20009;-78
2023/01/03 16:14:23;;;;;;;1.40;1.02;;;;;;;16.84;59.81;102331.78;6137481;23;20012;-78
2023/01/03 16:16:52;;;;;;;2.65;1.10;;;;;;;16.83;59.69;102320.50;6185591;23;20056;-79
2023/01/03 16:19:23;;;;;;;1.73;1.30;;;;;;;16.85;60.37;102323.13;6162335;23;20008;-79
2023/01/03 16:21:50;;;;;;;2.13;1.00;;;;;;;16.85;59.91;102325.72;6186405;23;20027;-79
2023/01/03 16:24:17;;;;;;;2.03;1.10;;;;;;;16.84;59.91;102317.06;6160139;23;20040;-79
2023/01/03 16:26:46;;;;;;;2.10;1.05;;;;;;;16.84;59.74;102319.66;6185128;23;20009;-78
2023/01/03 16:29:13;;;;;;;1.95;1.20;;;;;;;16.86;59.83;102315.34;6160418;23;20032;-78
2023/01/03 16:31:40;;;;;;;1.63;1.00;;;;;;;16.86;59.98;102317.09;6166852;23;20017;-78
2023/01/03 16:34:13;;;;;;;1.73;0.98;;;;;;;16.86;59.82;102311.88;6169466;23;20029;-79
2023/01/03 16:36:40;;;;;;;2.22;1.20;;;;;;;16.86;59.71;102306.69;6189037;23;20005;-79
2023/01/03 16:39:25;;;;;;;1.83;0.93;;;;;;;16.86;59.64;102306.69;6165161;23;20016;-79
2023/01/03 16:42:11;;;;;;;2.05;1.13;;;;;;;16.86;59.73;102302.34;6186517;23;20063;-78
2023/01/03 16:44:39;;;;;;;2.95;1.20;;;;;;;16.88;59.83;102298.91;6188592;23;20067;-78
2023/01/03 16:47:09;;;;;;;1.75;1.20;;;;;;;16.88;59.45;102291.13;6161192;23;20009;-80
2023/01/03 16:49:35;;;;;;;2.47;1.13;;;;;;;16.87;59.79;102292.81;6187659;23;20418;-79
2023/01/03 16:52:02;;;;;;;2.90;1.17;;;;;;;16.88;59.81;102292.00;6162280;23;20004;-80
2023/01/03 16:54:27;;;;;;;2.13;1.23;;;;;;;16.88;59.88;102293.72;6188430;23;20428;-80
2023/01/03 16:59:33;;;;;;;2.17;1.20;;;;;;;16.88;59.80;102291.13;6245720;23;20080;-85
2023/01/03 17:17:29;;;;;;;1.70;0.90;;;;;;;16.91;59.77;102292.03;6216920;22;20031;-79
2023/01/03 17:19:55;;;;;;;1.30;0.85;;;;;;;16.92;60.08;102279.88;6191640;23;20013;-78
2023/01/03 17:22:24;;;;;;;1.73;1.00;;;;;;;16.91;59.70;102272.97;6166512;23;20059;-78
2023/01/03 17:24:51;;;;;;;3.67;1.23;;;;;;;16.92;59.61;102261.69;6192576;23;20134;-79
2023/01/03 17:27:22;;;;;;;2.20;1.00;;;;;;;16.92;59.78;102273.00;6192205;23;20043;-78
2023/01/03 17:29:53;;;;;;;2.50;1.02;;;;;;;16.92;59.71;102264.28;6191772;23;20012;-79
2023/01/03 17:32:20;;;;;;;2.15;1.10;;;;;;;16.93;59.83;102266.06;6218973;23;20062;-78
2023/01/03 17:34:46;;;;;;;2.15;1.00;;;;;;;16.93;59.66;102263.47;6191623;23;20039;-78